createdAt,value
2019-01-17T00:01:00.659Z,99.90
2019-01-17T00:03:55.987Z,99.90
2019-01-17T00:06:51.053Z,99.90
2019-01-17T00:09:43.387Z,99.50
2019-01-17T00:12:35.772Z,99.20
2019-01-17T00:15:26.537Z,99.10
2019-01-17T00:18:14.434Z,98.90
2019-01-17T00:21:12.758Z,98.70
2019-01-17T00:24:14.224Z,98.60
2019-01-17T00:27:01.911Z,98.60
2019-01-17T00:29:51.215Z,99.00
2019-01-17T00:32:39.269Z,99.20
2019-01-17T00:35:31.141Z,99.50
2019-01-17T00:38:32.763Z,99.60
2019-01-17T00:41:12.742Z,99.70
2019-01-17T00:44:00.679Z,99.80
2019-01-17T00:46:48.891Z,99.40
2019-01-17T00:49:37.035Z,99.50
2019-01-17T00:52:26.382Z,99.70
2019-01-17T00:55:10.954Z,99.90
2019-01-17T00:57:55.551Z,99.90
2019-01-17T01:00:38.279Z,99.90
2019-01-17T01:03:36.724Z,99.90
2019-01-17T01:06:32.280Z,99.90
2019-01-17T01:09:21.249Z,99.90
2019-01-17T01:12:22.681Z,99.90
2019-01-17T01:15:14.931Z,99.90
2019-01-17T01:18:01.142Z,99.90
2019-01-17T01:20:56.576Z,99.90
2019-01-17T01:23:48.705Z,99.90
2019-01-17T01:26:47.077Z,99.90
2019-01-17T01:29:33.714Z,99.90
2019-01-17T01:32:29.245Z,99.90
2019-01-17T01:35:18.530Z,99.90
2019-01-17T01:38:21.327Z,99.90
2019-01-17T01:41:05.906Z,99.90
2019-01-17T01:43:47.447Z,99.90
2019-01-17T01:46:39.597Z,99.90
2019-01-17T01:49:31.993Z,99.90
2019-01-17T01:52:09.521Z,99.90
2019-01-17T01:54:39.949Z,99.90
2019-01-17T01:57:10.547Z,99.90
2019-01-17T01:59:41.083Z,99.90
2019-01-17T02:02:11.707Z,99.90
2019-01-17T02:04:42.152Z,99.90
2019-01-17T02:07:12.559Z,99.90
2019-01-17T02:09:42.997Z,99.90
2019-01-17T02:12:13.462Z,99.90
2019-01-17T02:14:43.875Z,99.90
2019-01-17T02:17:14.866Z,99.90
2019-01-17T02:19:45.274Z,99.90
2019-01-17T02:22:15.697Z,99.90
2019-01-17T02:24:46.138Z,99.90
2019-01-17T02:27:16.569Z,99.90
2019-01-17T02:29:46.980Z,99.90
2019-01-17T02:32:17.645Z,99.90
2019-01-17T02:34:48.029Z,99.90
2019-01-17T02:37:18.475Z,99.90
2019-01-17T02:39:48.908Z,99.90
2019-01-17T02:42:19.333Z,99.90
2019-01-17T02:44:49.769Z,99.90
2019-01-17T02:47:20.178Z,99.90
2019-01-17T02:49:50.605Z,99.90
2019-01-17T02:52:21.168Z,99.90
2019-01-17T02:54:51.583Z,99.90
2019-01-17T02:57:21.972Z,99.90
2019-01-17T02:59:52.521Z,99.90
2019-01-17T03:02:22.969Z,99.90
2019-01-17T03:04:53.493Z,99.90
2019-01-17T03:07:23.939Z,99.90
2019-01-17T03:09:54.371Z,99.90
2019-01-17T03:12:24.805Z,99.90
2019-01-17T03:14:55.195Z,99.90
2019-01-17T03:17:25.621Z,99.90
2019-01-17T03:19:56.043Z,99.90
2019-01-17T03:22:26.547Z,99.90
2019-01-17T03:24:56.941Z,99.90
2019-01-17T03:27:28.337Z,99.90
2019-01-17T03:29:58.762Z,99.90
2019-01-17T03:32:29.150Z,99.90
2019-01-17T03:34:59.544Z,99.90
2019-01-17T03:37:29.928Z,99.90
2019-01-17T03:40:00.355Z,99.90
2019-01-17T03:42:31.387Z,99.90
2019-01-17T03:45:01.796Z,99.90
2019-01-17T03:47:32.228Z,99.90
2019-01-17T03:50:02.745Z,99.90
2019-01-17T03:52:33.194Z,99.90
2019-01-17T03:55:04.107Z,99.90
2019-01-17T03:57:34.519Z,99.90
2019-01-17T04:00:06.734Z,99.90
2019-01-17T04:02:37.156Z,99.90
2019-01-17T04:05:08.591Z,99.90
2019-01-17T04:07:38.978Z,99.90
2019-01-17T04:10:11.593Z,99.90
2019-01-17T04:12:42.008Z,99.90
2019-01-17T04:15:13.506Z,99.90
2019-01-17T04:17:43.909Z,99.90
2019-01-17T04:20:18.571Z,99.90
2019-01-17T04:22:48.985Z,99.90
2019-01-17T04:25:19.403Z,99.90
2019-01-17T04:27:49.810Z,99.90
2019-01-17T04:30:20.749Z,99.90
2019-01-17T04:32:51.153Z,99.90
2019-01-17T04:35:21.557Z,99.90
2019-01-17T04:37:52.076Z,99.90
2019-01-17T04:40:22.496Z,99.90
2019-01-17T04:42:53.143Z,99.90
2019-01-17T04:45:23.504Z,99.90
2019-01-17T04:47:53.952Z,99.90
2019-01-17T04:50:24.332Z,99.90
2019-01-17T04:52:54.779Z,99.90
2019-01-17T04:55:25.295Z,99.90
2019-01-17T04:57:56.048Z,99.90
2019-01-17T05:00:26.457Z,99.90
2019-01-17T05:02:56.880Z,99.90
2019-01-17T05:05:27.326Z,99.90
2019-01-17T05:07:57.752Z,99.90
2019-01-17T05:10:29.119Z,99.90
2019-01-17T05:12:59.548Z,99.90
2019-01-17T05:15:30.018Z,99.90
2019-01-17T05:18:00.575Z,99.90
2019-01-17T05:20:30.998Z,99.90
2019-01-17T05:23:01.446Z,99.90
2019-01-17T05:25:31.844Z,99.90
2019-01-17T05:28:02.259Z,99.90
2019-01-17T05:30:32.719Z,99.90
2019-01-17T05:33:03.140Z,99.90
2019-01-17T05:35:33.877Z,99.90
2019-01-17T05:38:04.447Z,99.90
2019-01-17T05:40:35.105Z,99.90
2019-01-17T05:43:05.847Z,99.90
2019-01-17T05:45:36.516Z,99.90
2019-01-17T05:48:06.962Z,99.90
2019-01-17T05:50:39.296Z,99.90
2019-01-17T05:53:09.708Z,99.90
2019-01-17T05:55:40.158Z,99.90
2019-01-17T05:58:10.587Z,99.90
2019-01-17T06:00:41.041Z,99.90
2019-01-17T06:03:11.444Z,99.90
2019-01-17T06:05:41.840Z,99.90
2019-01-17T06:08:12.328Z,99.90
2019-01-17T06:10:43.017Z,99.90
2019-01-17T06:13:15.611Z,99.90
2019-01-17T06:15:46.434Z,99.90
2019-01-17T06:18:16.874Z,99.90
2019-01-17T06:20:47.489Z,99.90
2019-01-17T06:23:17.924Z,99.90
2019-01-17T06:25:48.381Z,99.90
2019-01-17T06:28:18.792Z,99.90
2019-01-17T06:30:49.156Z,99.90
2019-01-17T06:33:19.623Z,99.90
2019-01-17T06:35:50.066Z,99.90
2019-01-17T06:38:20.509Z,99.90
2019-01-17T06:40:50.928Z,99.90
2019-01-17T06:43:21.357Z,99.90
2019-01-17T06:45:51.764Z,99.90
2019-01-17T06:48:22.207Z,99.90
2019-01-17T06:50:52.640Z,99.90
2019-01-17T06:53:23.093Z,99.90
2019-01-17T06:55:53.548Z,99.90
2019-01-17T06:58:23.994Z,99.90
2019-01-17T07:00:54.409Z,99.90
2019-01-17T07:03:24.809Z,99.90
2019-01-17T07:05:55.213Z,99.90
2019-01-17T07:08:25.727Z,99.90
2019-01-17T07:10:56.148Z,99.90
2019-01-17T07:13:26.866Z,99.90
2019-01-17T07:15:57.279Z,99.90
2019-01-17T07:18:29.980Z,99.90
2019-01-17T07:21:00.406Z,99.90
2019-01-17T07:23:30.850Z,99.90
2019-01-17T07:26:01.245Z,99.90
2019-01-17T07:28:31.732Z,99.90
2019-01-17T07:31:02.136Z,99.90
2019-01-17T07:33:32.587Z,99.90
2019-01-17T07:36:03.049Z,99.90
2019-01-17T07:38:33.440Z,99.90
2019-01-17T07:41:03.838Z,99.90
2019-01-17T07:43:34.236Z,99.90
2019-01-17T07:46:04.682Z,99.90
2019-01-17T07:48:35.257Z,99.90
2019-01-17T07:51:05.700Z,99.90
2019-01-17T07:53:36.210Z,99.90
2019-01-17T07:56:06.762Z,99.90
2019-01-17T07:58:37.200Z,99.90
2019-01-17T08:01:07.669Z,99.90
2019-01-17T08:03:38.123Z,99.90
2019-01-17T08:06:08.575Z,99.90
2019-01-17T08:08:39.016Z,99.90
2019-01-17T08:11:09.490Z,99.90
2019-01-17T08:13:39.946Z,99.90
2019-01-17T08:16:10.423Z,99.90
2019-01-17T08:18:40.826Z,99.90
2019-01-17T08:21:11.366Z,99.90
2019-01-17T08:23:41.771Z,99.90
2019-01-17T08:26:12.364Z,99.90
2019-01-17T08:28:42.776Z,99.90
2019-01-17T08:31:13.184Z,99.90
2019-01-17T08:33:43.736Z,99.90
2019-01-17T08:36:14.174Z,99.90
2019-01-17T08:38:44.573Z,99.90
2019-01-17T08:41:14.981Z,99.90
2019-01-17T08:43:45.394Z,99.90
2019-01-17T08:46:15.945Z,99.90
2019-01-17T08:48:46.513Z,99.90
2019-01-17T08:51:16.910Z,99.90
2019-01-17T08:53:47.406Z,99.90
2019-01-17T08:56:17.859Z,99.90
2019-01-17T08:58:48.254Z,99.90
2019-01-17T09:01:18.671Z,99.90
2019-01-17T09:03:49.074Z,99.90
2019-01-17T09:06:19.570Z,99.90
2019-01-17T09:08:49.994Z,99.90
2019-01-17T09:11:20.470Z,99.90
2019-01-17T09:13:50.892Z,96.80
2019-01-17T09:16:21.311Z,91.10
2019-01-17T09:18:51.738Z,79.60
2019-01-17T09:21:22.165Z,69.00
2019-01-17T09:23:52.606Z,65.10
2019-01-17T09:26:23.105Z,60.10
2019-01-17T09:28:53.539Z,58.40
2019-01-17T09:31:23.981Z,55.30
2019-01-17T09:33:55.443Z,54.10
2019-01-17T09:36:25.856Z,48.70
2019-01-17T09:38:56.319Z,47.40
2019-01-17T09:41:27.001Z,46.70
2019-01-17T09:43:58.078Z,47.20
2019-01-17T09:46:28.536Z,48.80
2019-01-17T09:48:59.323Z,53.20
2019-01-17T09:51:29.796Z,56.70
2019-01-17T09:54:00.872Z,59.90
2019-01-17T09:56:31.316Z,64.40
2019-01-17T09:59:02.016Z,66.50
2019-01-17T10:01:32.563Z,71.40
2019-01-17T10:04:03.128Z,76.30
2019-01-17T10:06:33.551Z,82.50
2019-01-17T10:09:05.557Z,84.20
2019-01-17T10:11:37.884Z,85.50
2019-01-17T10:14:08.471Z,84.80
2019-01-17T10:17:03.764Z,88.80
2019-01-17T10:20:45.364Z,92.90
2019-01-17T10:24:12.543Z,95.10
2019-01-17T10:27:41.533Z,95.70
2019-01-17T10:30:45.708Z,98.50
2019-01-17T10:33:30.318Z,95.90
2019-01-17T10:36:47.356Z,91.80
2019-01-17T10:40:09.289Z,91.40
2019-01-17T10:43:10.153Z,91.00
2019-01-17T10:46:19.296Z,90.70
2019-01-17T10:49:38.013Z,90.60
2019-01-17T10:53:34.873Z,90.20
2019-01-17T10:57:04.213Z,81.30
2019-01-17T11:00:52.993Z,69.90
2019-01-17T11:04:09.421Z,55.40
2019-01-17T11:07:22.989Z,48.90
2019-01-17T11:10:57.565Z,47.80
2019-01-17T11:14:46.474Z,48.40
2019-01-17T11:18:01.076Z,50.10
2019-01-17T11:21:44.811Z,53.80
2019-01-17T11:25:06.121Z,57.20
2019-01-17T11:28:18.611Z,63.00
2019-01-17T11:32:04.086Z,68.40
2019-01-17T11:35:02.101Z,71.10
2019-01-17T11:38:34.633Z,71.50
2019-01-17T11:41:35.668Z,73.70
2019-01-17T11:45:11.326Z,74.40
2019-01-17T11:48:23.882Z,75.70
2019-01-17T11:51:49.051Z,76.00
2019-01-17T11:55:34.883Z,78.60
2019-01-17T11:58:37.853Z,80.20
2019-01-17T12:02:05.584Z,83.60
2019-01-17T12:04:34.811Z,81.80
2019-01-17T12:07:15.902Z,80.10
2019-01-17T12:09:46.478Z,81.10
2019-01-17T12:12:22.132Z,82.80
2019-01-17T12:14:54.755Z,81.90
2019-01-17T12:17:25.212Z,82.70
2019-01-17T12:19:55.687Z,83.50
2019-01-17T12:22:26.225Z,83.60
2019-01-17T12:24:56.659Z,84.90
2019-01-17T12:27:27.114Z,85.90
2019-01-17T12:29:57.703Z,86.20
2019-01-17T12:32:28.145Z,87.00
2019-01-17T12:34:58.824Z,85.60
2019-01-17T12:37:29.391Z,83.00
2019-01-17T12:39:59.838Z,80.10
2019-01-17T12:42:30.260Z,74.70
2019-01-17T12:45:00.689Z,72.40
2019-01-17T12:47:31.133Z,73.70
2019-01-17T12:50:01.579Z,73.40
2019-01-17T12:52:32.030Z,72.90
2019-01-17T12:55:02.703Z,71.60
2019-01-17T12:57:33.129Z,67.90
2019-01-17T13:00:07.660Z,65.40
2019-01-17T13:02:36.362Z,64.30
2019-01-17T13:05:07.473Z,64.60
2019-01-17T13:07:37.924Z,64.70
2019-01-17T13:10:10.415Z,63.80
2019-01-17T13:12:40.853Z,64.10
2019-01-17T13:15:13.460Z,64.40
2019-01-17T13:17:43.906Z,66.80
2019-01-17T13:20:17.100Z,65.70
2019-01-17T13:22:47.511Z,65.10
2019-01-17T13:25:20.973Z,65.40
2019-01-17T13:27:51.698Z,67.50
2019-01-17T13:30:24.280Z,66.70
2019-01-17T13:32:54.686Z,67.00
2019-01-17T13:35:25.146Z,67.50
2019-01-17T13:37:55.621Z,68.50
2019-01-17T13:40:26.066Z,69.00
2019-01-17T13:42:56.501Z,69.30
2019-01-17T13:45:26.914Z,70.00
2019-01-17T13:47:57.389Z,70.50
2019-01-17T13:50:27.786Z,71.60
2019-01-17T13:52:58.208Z,73.60
2019-01-17T13:55:28.654Z,74.60
2019-01-17T13:57:59.091Z,75.60
2019-01-17T14:00:29.549Z,75.90
2019-01-17T14:03:00.008Z,76.30
2019-01-17T14:05:30.653Z,77.20
2019-01-17T14:08:01.096Z,77.20
2019-01-17T14:10:31.525Z,78.20
2019-01-17T14:13:02.002Z,79.40
2019-01-17T14:15:32.721Z,80.20
2019-01-17T14:18:03.187Z,80.90
2019-01-17T14:20:33.724Z,81.00
2019-01-17T14:23:04.241Z,82.70
2019-01-17T14:25:34.754Z,85.60
2019-01-17T14:28:05.242Z,86.60
2019-01-17T14:30:36.337Z,87.70
2019-01-17T14:33:06.874Z,88.30
2019-01-17T14:35:37.373Z,87.20
2019-01-17T14:38:07.895Z,88.00
2019-01-17T14:40:38.387Z,90.10
2019-01-17T14:43:08.867Z,92.60
2019-01-17T14:45:39.309Z,95.10
2019-01-17T14:48:09.755Z,96.40
2019-01-17T14:50:40.201Z,97.50
2019-01-17T14:53:10.711Z,96.10
2019-01-17T14:55:41.158Z,96.10
2019-01-17T14:58:11.676Z,96.50
2019-01-17T15:00:42.122Z,96.00
2019-01-17T15:03:12.568Z,96.60
2019-01-17T15:05:43.011Z,96.50
2019-01-17T15:08:13.710Z,96.70
2019-01-17T15:10:44.524Z,96.80
2019-01-17T15:13:15.076Z,96.30
2019-01-17T15:15:45.552Z,97.10
2019-01-17T15:18:16.151Z,96.10
2019-01-17T15:20:46.617Z,95.30
2019-01-17T15:23:17.061Z,95.30
2019-01-17T15:25:47.697Z,95.70
2019-01-17T15:28:18.190Z,96.30
2019-01-17T15:30:48.637Z,96.40
2019-01-17T15:33:19.122Z,96.90
2019-01-17T15:35:49.613Z,97.90
2019-01-17T15:38:20.241Z,98.90
2019-01-17T15:40:50.766Z,99.00
2019-01-17T15:43:21.176Z,99.30
2019-01-17T15:45:51.850Z,98.90
2019-01-17T15:48:23.184Z,98.70
2019-01-17T15:50:53.571Z,99.00
2019-01-17T15:53:24.247Z,99.80
2019-01-17T15:55:54.656Z,99.40
2019-01-17T15:58:25.321Z,99.80
2019-01-17T16:00:55.822Z,99.50
2019-01-17T16:03:26.374Z,99.40
2019-01-17T16:05:56.851Z,99.10
2019-01-17T16:08:27.490Z,99.10
2019-01-17T16:10:57.940Z,99.50
2019-01-17T16:13:28.372Z,99.60
2019-01-17T16:15:58.837Z,99.70
2019-01-17T16:18:29.264Z,99.90
2019-01-17T16:20:59.709Z,99.90
2019-01-17T16:23:30.390Z,99.90
2019-01-17T16:26:03.291Z,99.90
2019-01-17T16:28:33.803Z,99.90
2019-01-17T16:31:04.447Z,99.90
2019-01-17T16:33:34.923Z,99.90
2019-01-17T16:36:05.451Z,99.90
2019-01-17T16:38:36.190Z,99.90
2019-01-17T16:41:06.637Z,99.90
2019-01-17T16:43:37.107Z,99.90
2019-01-17T16:46:07.532Z,99.90
2019-01-17T16:48:40.623Z,99.90
2019-01-17T16:51:11.141Z,99.90
2019-01-17T16:53:41.711Z,99.90
2019-01-17T16:56:12.125Z,99.90
2019-01-17T16:58:42.578Z,99.60
2019-01-17T17:01:13.009Z,99.70
2019-01-17T17:03:43.474Z,99.50
2019-01-17T17:06:13.919Z,99.10
2019-01-17T17:08:44.578Z,99.90
2019-01-17T17:11:15.028Z,99.40
2019-01-17T17:13:45.497Z,99.00
2019-01-17T17:16:16.142Z,99.60
2019-01-17T17:18:46.567Z,99.60
2019-01-17T17:21:17.008Z,99.60
2019-01-17T17:23:47.461Z,99.50
2019-01-17T17:26:18.371Z,99.40
2019-01-17T17:28:49.151Z,99.10
2019-01-17T17:31:19.687Z,99.80
2019-01-17T17:33:50.178Z,99.10
2019-01-17T17:36:20.822Z,99.60
2019-01-17T17:38:51.293Z,99.70
2019-01-17T17:41:21.832Z,99.50
2019-01-17T17:43:52.285Z,99.60
2019-01-17T17:46:22.885Z,99.90
2019-01-17T17:48:53.409Z,99.90
2019-01-17T17:51:23.950Z,99.90
2019-01-17T17:53:54.392Z,99.90
2019-01-17T17:56:24.853Z,99.90
2019-01-17T17:58:55.660Z,99.90
2019-01-17T18:01:31.372Z,99.50
2019-01-17T18:04:02.664Z,99.70
2019-01-17T18:06:33.308Z,99.10
2019-01-17T18:09:05.380Z,98.40
2019-01-17T18:11:35.974Z,97.90
2019-01-17T18:14:06.600Z,98.70
2019-01-17T18:16:37.360Z,98.90
2019-01-17T18:19:07.839Z,97.90
2019-01-17T18:21:38.409Z,98.20
2019-01-17T18:24:08.935Z,98.30
2019-01-17T18:26:39.965Z,98.20
2019-01-17T18:29:10.442Z,98.30
2019-01-17T18:31:40.956Z,97.90
2019-01-17T18:34:11.480Z,97.70
2019-01-17T18:36:41.934Z,97.40
2019-01-17T18:39:13.509Z,97.60
2019-01-17T18:41:44.105Z,97.50
2019-01-17T18:44:14.578Z,97.40
2019-01-17T18:46:45.143Z,97.30
2019-01-17T18:49:15.592Z,97.30
2019-01-17T18:51:46.090Z,96.80
2019-01-17T18:54:16.552Z,97.00
2019-01-17T18:56:47.283Z,97.70
2019-01-17T18:59:17.853Z,97.50
2019-01-17T19:01:48.309Z,97.80
2019-01-17T19:04:18.865Z,97.30
2019-01-17T19:06:49.326Z,98.30
2019-01-17T19:09:19.759Z,98.60
2019-01-17T19:11:51.825Z,98.60
2019-01-17T19:14:22.548Z,98.20
2019-01-17T19:16:53.061Z,98.80
2019-01-17T19:19:23.702Z,99.20
2019-01-17T19:21:54.130Z,99.70
2019-01-17T19:24:24.624Z,99.30
2019-01-17T19:26:55.347Z,99.70
2019-01-17T19:29:26.041Z,98.80
2019-01-17T19:31:56.470Z,99.10
2019-01-17T19:34:26.910Z,99.50
2019-01-17T19:36:57.443Z,99.40
2019-01-17T19:39:28.597Z,99.60
2019-01-17T19:41:59.058Z,99.70
2019-01-17T19:44:29.536Z,99.90
2019-01-17T19:47:00.037Z,99.80
2019-01-17T19:49:30.502Z,99.50
2019-01-17T19:52:01.045Z,99.90
2019-01-17T19:54:31.717Z,99.90
2019-01-17T19:57:02.265Z,99.90
2019-01-17T19:59:32.758Z,99.40
2019-01-17T20:02:03.285Z,99.20
2019-01-17T20:04:33.830Z,99.40
2019-01-17T20:07:04.326Z,99.70
2019-01-17T20:09:34.901Z,99.90
2019-01-17T20:12:06.331Z,99.90
2019-01-17T20:14:36.873Z,99.90
2019-01-17T20:17:07.337Z,99.90
2019-01-17T20:19:37.900Z,99.90
2019-01-17T20:22:08.453Z,99.90
2019-01-17T20:24:39.318Z,99.90
2019-01-17T20:27:10.120Z,99.90
2019-01-17T20:29:40.663Z,99.90
2019-01-17T20:32:11.184Z,99.90
2019-01-17T20:34:41.840Z,99.90
2019-01-17T20:37:12.303Z,99.90
2019-01-17T20:39:42.952Z,99.90
2019-01-17T20:42:13.458Z,99.90
2019-01-17T20:44:43.872Z,99.90
2019-01-17T20:47:14.999Z,99.90
2019-01-17T20:49:45.463Z,99.90
2019-01-17T20:52:15.981Z,99.90
2019-01-17T20:54:46.699Z,99.90
2019-01-17T20:57:17.932Z,99.90
2019-01-17T20:59:48.447Z,99.90
2019-01-17T21:02:21.172Z,99.90
2019-01-17T21:04:53.442Z,99.90
2019-01-17T21:07:23.996Z,99.90
2019-01-17T21:09:56.506Z,99.90
2019-01-17T21:12:26.942Z,99.90
2019-01-17T21:14:57.478Z,99.90
2019-01-17T21:17:28.252Z,99.90
2019-01-17T21:19:58.726Z,99.90
2019-01-17T21:22:29.238Z,99.90
2019-01-17T21:24:59.934Z,99.90
2019-01-17T21:27:30.461Z,99.90
2019-01-17T21:30:01.240Z,99.90
2019-01-17T21:32:31.775Z,99.90
2019-01-17T21:35:02.332Z,99.90
2019-01-17T21:37:32.841Z,99.90
2019-01-17T21:40:03.293Z,99.90
2019-01-17T21:42:33.795Z,99.90
2019-01-17T21:45:04.780Z,99.90
2019-01-17T21:47:35.303Z,99.90
2019-01-17T21:50:09.827Z,99.90
2019-01-17T21:52:40.547Z,99.90
2019-01-17T21:55:11.254Z,99.90
2019-01-17T21:57:41.806Z,99.90
2019-01-17T22:00:17.869Z,99.90
2019-01-17T22:02:48.455Z,99.90
2019-01-17T22:05:19.242Z,99.90
2019-01-17T22:07:50.109Z,99.90
2019-01-17T22:10:22.303Z,99.30
2019-01-17T22:12:52.770Z,98.60
2019-01-17T22:15:24.812Z,98.50
2019-01-17T22:17:55.489Z,99.30
2019-01-17T22:20:26.137Z,99.60
2019-01-17T22:22:57.958Z,99.20
2019-01-17T22:25:28.378Z,99.30
2019-01-17T22:27:59.108Z,99.50
2019-01-17T22:30:29.852Z,99.40
2019-01-17T22:33:00.278Z,99.70
2019-01-17T22:35:30.971Z,99.90
2019-01-17T22:38:01.419Z,99.90
2019-01-17T22:40:32.755Z,99.90
2019-01-17T22:43:03.217Z,99.90
2019-01-17T22:45:34.094Z,99.90
2019-01-17T22:48:04.594Z,99.90
2019-01-17T22:50:35.028Z,99.40
2019-01-17T22:53:05.724Z,99.40
2019-01-17T22:55:36.249Z,99.50
2019-01-17T22:58:06.788Z,99.50
2019-01-17T23:01:05.128Z,99.60
2019-01-17T23:03:40.196Z,99.20
2019-01-17T23:06:10.677Z,98.80
2019-01-17T23:08:41.127Z,98.60
2019-01-17T23:11:11.572Z,98.60
2019-01-17T23:13:42.112Z,98.20
2019-01-17T23:16:12.632Z,98.10
2019-01-17T23:18:43.101Z,98.40
2019-01-17T23:21:13.630Z,98.50
2019-01-17T23:23:44.107Z,97.90
2019-01-17T23:26:15.466Z,97.90
2019-01-17T23:28:45.919Z,97.80
2019-01-17T23:31:16.353Z,97.70
2019-01-17T23:33:46.805Z,98.10
2019-01-17T23:36:17.310Z,98.50
2019-01-17T23:38:48.246Z,98.50
2019-01-17T23:41:18.663Z,98.60
2019-01-17T23:43:49.101Z,98.80
2019-01-17T23:46:19.514Z,98.80
2019-01-17T23:48:49.999Z,99.10
2019-01-17T23:51:20.554Z,99.30
2019-01-17T23:53:50.992Z,99.50
2019-01-17T23:56:21.448Z,99.20
2019-01-17T23:58:51.892Z,99.40
